Lindsay, TX

12:25 AM CDT on September 28, 2016 (GMT -0500)
Gainesville Municipal

Weather History for KGLE - October, 2012

Change the Weather History Date:

Tuesday, October 23, 2012

  Actual Average (KDTO) Record (KDTO)
Temperature  
Mean Temperature 75 °F -  
Max Temperature 86 °F 73 °F 91 °F (2001)
Min Temperature 64 °F 51 °F 33 °F (2008)
Cooling Degree Days 10    
Growing Degree Days 25 (Base 50)    
Moisture  
Dew Point 66 °F    
Average Humidity 81    
Maximum Humidity 94    
Minimum Humidity 58    
Precipitation  
Precipitation 0.00 in - - ()
Sea Level Pressure  
Sea Level Pressure 29.92 in    
Wind  
Wind Speed 11 mph (SSE)    
Max Wind Speed 20 mph    
Max Gust Speed 25 mph    
Visibility 10 miles    
Events      
Averages and records for this station are not official NWS values.
T = Trace of Precipitation, MM = Missing Value Source: NWS Daily Summary

Daily Weather History Graph

Daily Weather History Graph

Search for Another Location

Airport or City:

Trip Planner

Search our weather history database for the weather conditions in past years. The results will help you decide how hot, cold, wet, or windy it might be!

Date:

Astronomy

Oct. 23, 2012 Rise Set
Actual Time 7:40 AM CDT 6:45 PM CDT
Civil Twilight 7:15 AM CDT 7:10 PM CDT
Nautical Twilight 6:45 AM CDT 7:39 PM CDT
Astronomical Twilight 6:17 AM CDT 8:08 PM CDT
Moon 3:14 PM CDT (10/23) 1:50 AM CDT (10/23)
Length of Visible Light 11h 55m
Length of Day
11h 04m
Waxing Gibbous, 67% of the Moon is Illuminated
Oct 23
Waxing Gibbous
Oct 29
Full
Nov 6
Last Quarter
Nov 13
New
Nov 20
First Quarter

Hourly Weather History & Observations

Time (CDT) Temp. Heat Index Dew Point Humidity Pressure Visibility Wind Dir Wind Speed Gust Speed Precip Events Conditions
12:15 AM 69.8 °F - 68.0 °F 94% 29.92 in 10.0 mi SSE 8.1 mph - N/A   Mostly Cloudy
12:35 AM 69.8 °F - 68.0 °F 94% 29.92 in 10.0 mi SSE 8.1 mph - N/A   Scattered Clouds
12:55 AM 69.8 °F - 68.0 °F 94% 29.92 in 10.0 mi SSE 10.4 mph - N/A   Clear
1:15 AM 68.0 °F - 64.4 °F 88% 29.92 in 10.0 mi SSE 10.4 mph - N/A   Clear
1:35 AM 69.8 °F - 68.0 °F 94% 29.92 in 10.0 mi SSE 11.5 mph - N/A   Clear
1:55 AM 69.8 °F - 66.2 °F 88% 29.92 in 10.0 mi South 11.5 mph 17.3 mph N/A   Clear
2:35 AM 69.8 °F - 66.2 °F 88% 29.92 in 10.0 mi South 10.4 mph - N/A   Clear
2:55 AM 69.8 °F - 66.2 °F 88% 29.92 in 10.0 mi South 10.4 mph 17.3 mph N/A   Clear
3:15 AM 68.0 °F - 64.4 °F 88% 29.92 in 10.0 mi SSE 9.2 mph - N/A   Clear
3:35 AM 68.0 °F - 64.4 °F 88% 29.92 in 10.0 mi SSE 8.1 mph - N/A   Clear
3:55 AM 68.0 °F - 64.4 °F 88% 29.92 in 10.0 mi SSE 8.1 mph - N/A   Clear
4:15 AM 68.0 °F - 64.4 °F 88% 29.92 in 10.0 mi SSE 8.1 mph - N/A   Mostly Cloudy
4:35 AM 68.0 °F - 64.4 °F 88% 29.92 in 10.0 mi South 9.2 mph 16.1 mph N/A   Overcast
4:55 AM 69.8 °F - 66.2 °F 88% 29.92 in 10.0 mi SSE 10.4 mph - N/A   Overcast
5:15 AM 69.8 °F - 66.2 °F 88% 29.92 in 10.0 mi SSE 10.4 mph - N/A   Overcast
5:35 AM 68.0 °F - 64.4 °F 88% 29.92 in 10.0 mi SSE 9.2 mph - N/A   Overcast
5:55 AM 68.0 °F - 64.4 °F 88% 29.92 in 10.0 mi SSE 10.4 mph - N/A   Scattered Clouds
6:35 AM 66.2 °F - 64.4 °F 94% 29.93 in 10.0 mi SE 9.2 mph - N/A   Clear
6:55 AM 66.2 °F - 62.6 °F 88% 29.94 in 10.0 mi SE 9.2 mph - N/A   Clear
7:15 AM 64.4 °F - 62.6 °F 94% 29.94 in 10.0 mi SSE 11.5 mph - N/A   Clear
7:35 AM 64.4 °F - 62.6 °F 94% 29.95 in 10.0 mi SSE 10.4 mph - N/A   Clear
7:55 AM 64.4 °F - 62.6 °F 94% 29.95 in 10.0 mi SSE 10.4 mph - N/A   Clear
8:15 AM 64.4 °F - 62.6 °F 94% 29.95 in 10.0 mi SSE 10.4 mph - N/A   Clear
8:35 AM 68.0 °F - 64.4 °F 88% 29.96 in 10.0 mi SSE 10.4 mph - N/A   Clear
9:15 AM 69.8 °F - 68.0 °F 94% 29.97 in 10.0 mi SSE 13.8 mph - N/A   Mostly Cloudy
9:35 AM 69.8 °F - 68.0 °F 94% 29.98 in 10.0 mi SSE 15.0 mph 19.6 mph N/A   Overcast
9:55 AM 69.8 °F - 68.0 °F 94% 29.98 in 10.0 mi South 13.8 mph 21.9 mph N/A   Overcast
10:15 AM 69.8 °F - 66.2 °F 88% 29.98 in 10.0 mi South 15.0 mph - N/A   Overcast
10:35 AM 69.8 °F - 66.2 °F 88% 29.98 in 10.0 mi South 16.1 mph 21.9 mph N/A   Overcast
10:55 AM 71.6 °F - 68.0 °F 88% 29.97 in 10.0 mi South 17.3 mph 20.7 mph N/A   Overcast
11:15 AM 71.6 °F - 66.2 °F 83% 29.97 in 10.0 mi South 17.3 mph 24.2 mph N/A   Overcast
11:35 AM 75.2 °F - 68.0 °F 78% 29.96 in 10.0 mi South 18.4 mph - N/A   Overcast
11:55 AM 75.2 °F - 68.0 °F 78% 29.95 in 10.0 mi South 16.1 mph 24.2 mph N/A   Mostly Cloudy
12:15 PM 77.0 °F - 68.0 °F 74% 29.95 in 10.0 mi South 16.1 mph - N/A   Mostly Cloudy
12:35 PM 78.8 °F - 68.0 °F 69% 29.95 in 10.0 mi South 15.0 mph 21.9 mph N/A   Mostly Cloudy
12:55 PM 78.8 °F - 68.0 °F 69% 29.94 in 10.0 mi South 16.1 mph 21.9 mph N/A   Overcast
1:15 PM 78.8 °F - 66.2 °F 65% 29.94 in 10.0 mi South 17.3 mph 21.9 mph N/A   Mostly Cloudy
1:35 PM 78.8 °F - 66.2 °F 65% 29.93 in 10.0 mi South 13.8 mph - N/A   Mostly Cloudy
1:55 PM 78.8 °F - 66.2 °F 65% 29.92 in 10.0 mi South 16.1 mph 24.2 mph N/A   Mostly Cloudy
2:15 PM 78.8 °F - 66.2 °F 65% 29.91 in 10.0 mi South 16.1 mph 23.0 mph N/A   Mostly Cloudy
2:35 PM 80.6 °F 83.2 °F 68.0 °F 65% 29.90 in 10.0 mi South 17.3 mph 20.7 mph N/A   Mostly Cloudy
2:55 PM 80.6 °F 83.2 °F 68.0 °F 65% 29.90 in 10.0 mi South 17.3 mph - N/A   Mostly Cloudy
3:15 PM 80.6 °F 83.2 °F 68.0 °F 65% 29.90 in 10.0 mi South 16.1 mph - N/A   Mostly Cloudy
3:55 PM 86.0 °F 90.4 °F 69.8 °F 58% 29.89 in 10.0 mi SSE 16.1 mph - N/A   Scattered Clouds
4:15 PM 80.6 °F 82.7 °F 66.2 °F 61% 29.88 in 10.0 mi South 13.8 mph 19.6 mph N/A   Scattered Clouds
4:35 PM 82.4 °F 85.4 °F 68.0 °F 62% 29.88 in 10.0 mi SSE 13.8 mph - N/A   Mostly Cloudy
4:55 PM 82.4 °F 85.4 °F 68.0 °F 62% 29.88 in 10.0 mi SSE 15.0 mph - N/A   Scattered Clouds
5:15 PM 80.6 °F 82.7 °F 66.2 °F 61% 29.87 in 10.0 mi South 16.1 mph 23.0 mph N/A   Clear
5:35 PM 78.8 °F - 66.2 °F 65% 29.87 in 10.0 mi South 19.6 mph 23.0 mph N/A   Clear
5:55 PM 78.8 °F - 64.4 °F 61% 29.87 in 10.0 mi SSE 18.4 mph 25.3 mph N/A   Clear
6:15 PM 77.0 °F - 64.4 °F 65% 29.88 in 10.0 mi SSE 12.7 mph - N/A   Clear
6:35 PM 77.0 °F - 64.4 °F 65% 29.88 in 10.0 mi SSE 11.5 mph - N/A   Clear
6:55 PM 75.2 °F - 64.4 °F 69% 29.88 in 10.0 mi SSE 8.1 mph - N/A   Clear
7:15 PM 75.2 °F - 66.2 °F 73% 29.89 in 10.0 mi SSE 10.4 mph - N/A   Clear
7:35 PM 71.6 °F - 64.4 °F 78% 29.90 in 10.0 mi SSE 11.5 mph - N/A   Clear
7:55 PM 71.6 °F - 64.4 °F 78% 29.90 in 10.0 mi SSE 10.4 mph - N/A   Clear
8:15 PM 71.6 °F - 64.4 °F 78% 29.90 in 10.0 mi SSE 10.4 mph - N/A   Clear
8:35 PM 71.6 °F - 64.4 °F 78% 29.91 in 10.0 mi SSE 10.4 mph - N/A   Clear
8:55 PM 71.6 °F - 64.4 °F 78% 29.91 in 10.0 mi SSE 10.4 mph - N/A   Clear
9:15 PM 69.8 °F - 64.4 °F 83% 29.92 in 10.0 mi SSE 6.9 mph - N/A   Clear
9:35 PM 69.8 °F - 64.4 °F 83% 29.92 in 10.0 mi SSE 6.9 mph - N/A   Clear
9:55 PM 69.8 °F - 66.2 °F 88% 29.94 in 10.0 mi SSE 5.8 mph - N/A   Clear
10:15 PM 69.8 °F - 66.2 °F 88% 29.94 in 10.0 mi SSE 6.9 mph - N/A   Clear
10:35 PM 69.8 °F - 66.2 °F 88% 29.95 in 10.0 mi SSE 6.9 mph - N/A   Clear
10:55 PM 68.0 °F - 64.4 °F 88% 29.95 in 10.0 mi SSE 6.9 mph - N/A   Clear
11:15 PM 68.0 °F - 64.4 °F 88% 29.95 in 10.0 mi South 8.1 mph - N/A   Clear
11:35 PM 68.0 °F - 64.4 °F 88% 29.95 in 10.0 mi SSE 6.9 mph - N/A   Clear
11:55 PM 68.0 °F - 64.4 °F 88% 29.94 in 10.0 mi SSE 8.1 mph - N/A   Clear